Date,TemperatureHighF,TemperatureAvgF,TemperatureLowF,DewpointHighF,DewpointAvgF,DewpointLowF,HumidityHigh,HumidityAvg,HumidityLow,PressureMaxIn,PressureMinIn,WindSpeedMaxMPH,WindSpeedAvgMPH,GustSpeedMaxMPH,PrecipitationSumIn
2013-9-1,82,73,66,-100,-100,-100,0,0,100,0.00,40.00,0,-999,0,0.76
2013-9-2,73,70,67,-100,-100,-100,0,0,100,0.00,40.00,0,-999,0,1.51
2013-9-3,76,68,59,-100,-100,-100,0,0,100,0.00,40.00,0,-999,0,0.07
2013-9-4,80,65,54,-100,-100,-100,0,0,100,0.00,40.00,0,-999,0,0.01
2013-9-5,69,59,46,-100,-100,-100,0,0,100,0.00,40.00,0,-999,0,0.00
2013-9-6,69,53,40,-100,-100,-100,0,0,100,0.00,40.00,0,-999,0,0.00
2013-9-7,77,60,44,-100,-100,-100,0,0,100,0.00,40.00,0,-999,0,0.00
2013-9-8,67,59,46,-100,-100,-100,0,0,100,0.00,40.00,0,-999,0,0.01
2013-9-9,71,54,38,-100,-100,-100,0,0,100,0.00,40.00,0,-999,0,0.00
2013-9-10,71,62,51,-100,-100,-100,0,0,100,0.00,40.00,0,-999,0,0.06
2013-9-11,93,76,65,-100,-100,-100,0,0,100,0.00,40.00,0,-999,0,0.14
2013-9-12,77,70,66,-100,-100,-100,0,0,100,0.00,40.00,0,-999,0,1.36
2013-9-13,74,65,56,-100,-100,-100,0,0,100,0.00,40.00,0,-999,0,0.70
2013-9-14,65,57,48,-100,-100,-100,0,0,100,0.00,40.00,0,-999,0,0.01
2013-9-15,70,53,43,-100,-100,-100,0,0,100,0.00,40.00,0,-999,0,0.00
2013-9-16,65,55,41,-100,-100,-100,0,0,100,0.00,40.00,0,-999,0,0.00
2013-9-17,64,47,33,-100,-100,-100,0,0,100,0.00,40.00,0,-999,0,0.00
2013-9-18,49,40,37,-100,-100,-100,0,0,100,0.00,40.00,0,-999,0,0.00
2013-9-19,78,56,41,-100,-100,-100,0,0,100,0.00,40.00,0,-999,0,0.00
2013-9-20,79,59,43,-100,-100,-100,0,0,100,0.00,40.00,0,-999,0,0.00
2013-9-21,74,61,47,-100,-100,-100,0,0,100,0.00,40.00,0,-999,0,0.00
2013-9-22,69,63,50,-100,-100,-100,0,0,100,0.00,40.00,0,-999,0,0.68
2013-9-23,59,50,41,-100,-100,-100,0,0,100,0.00,40.00,0,-999,0,0.01
2013-9-24,63,50,40,-100,-100,-100,0,0,100,0.00,40.00,0,-999,0,0.00
2013-9-25,65,53,41,-100,-100,-100,0,0,100,0.00,40.00,0,-999,0,0.00
2013-9-26,70,56,45,-100,-100,-100,0,0,100,0.00,40.00,0,-999,0,0.00
2013-9-27,70,57,48,-100,-100,-100,0,0,100,0.00,40.00,0,-999,0,0.00
2013-9-28,75,56,42,-100,-100,-100,0,0,100,0.00,40.00,0,-999,0,0.00
2013-9-29,70,54,43,-100,-100,-100,0,0,100,0.00,40.00,0,-999,0,0.00
2013-9-30,72,52,41,-100,-100,-100,0,0,100,0.00,40.00,0,-999,0,0.00